sensor_id;sensor_type;location;lat;lon;timestamp;temperature;humidity
70076;DHT22;63241;51.056;3.698;2022-11-13T00:02:35;7.90;99.90
70076;DHT22;63241;51.056;3.698;2022-11-13T00:05:24;7.90;99.90
70076;DHT22;63241;51.056;3.698;2022-11-13T00:07:51;7.80;99.90
70076;DHT22;63241;51.056;3.698;2022-11-13T00:10:38;7.80;99.90
70076;DHT22;63241;51.056;3.698;2022-11-13T00:13:27;7.70;99.90
70076;DHT22;63241;51.056;3.698;2022-11-13T00:16:20;7.70;99.90
70076;DHT22;63241;51.056;3.698;2022-11-13T00:19:08;7.70;99.90
70076;DHT22;63241;51.056;3.698;2022-11-13T00:21:56;7.60;99.90
70076;DHT22;63241;51.056;3.698;2022-11-13T00:24:24;7.60;99.90
70076;DHT22;63241;51.056;3.698;2022-11-13T00:27:12;7.60;99.90
70076;DHT22;63241;51.056;3.698;2022-11-13T00:30:00;7.60;99.90
70076;DHT22;63241;51.056;3.698;2022-11-13T00:32:48;7.50;99.90
70076;DHT22;63241;51.056;3.698;2022-11-13T00:35:37;7.50;99.90
70076;DHT22;63241;51.056;3.698;2022-11-13T00:38:25;7.50;99.90
70076;DHT22;63241;51.056;3.698;2022-11-13T00:40:53;7.40;99.90
70076;DHT22;63241;51.056;3.698;2022-11-13T00:43:40;7.40;99.90
70076;DHT22;63241;51.056;3.698;2022-11-13T00:46:29;7.40;99.90
70076;DHT22;63241;51.056;3.698;2022-11-13T00:49:17;7.40;99.90
70076;DHT22;63241;51.056;3.698;2022-11-13T00:52:05;7.40;99.90
70076;DHT22;63241;51.056;3.698;2022-11-13T00:54:52;7.40;99.90
70076;DHT22;63241;51.056;3.698;2022-11-13T00:57:41;7.30;99.90
70076;DHT22;63241;51.056;3.698;2022-11-13T01:00:10;7.30;99.90
70076;DHT22;63241;51.056;3.698;2022-11-13T01:02:59;7.30;99.90
70076;DHT22;63241;51.056;3.698;2022-11-13T01:05:48;7.40;99.90
70076;DHT22;63241;51.056;3.698;2022-11-13T01:08:36;7.30;99.90
70076;DHT22;63241;51.056;3.698;2022-11-13T01:15:04;7.30;99.90
70076;DHT22;63241;51.056;3.698;2022-11-13T01:17:52;7.20;99.90
70076;DHT22;63241;51.056;3.698;2022-11-13T01:20:22;7.20;99.90
70076;DHT22;63241;51.056;3.698;2022-11-13T01:23:10;7.20;99.90
70076;DHT22;63241;51.056;3.698;2022-11-13T01:26:16;7.20;99.90
70076;DHT22;63241;51.056;3.698;2022-11-13T01:29:04;7.20;99.90
70076;DHT22;63241;51.056;3.698;2022-11-13T01:31:51;7.20;99.90
70076;DHT22;63241;51.056;3.698;2022-11-13T01:34:39;7.30;99.90
70076;DHT22;63241;51.056;3.698;2022-11-13T01:37:29;7.60;99.90
70076;DHT22;63241;51.056;3.698;2022-11-13T01:39:56;8.00;99.90
70076;DHT22;63241;51.056;3.698;2022-11-13T01:42:44;8.20;99.90
70076;DHT22;63241;51.056;3.698;2022-11-13T01:48:46;8.50;99.90
70076;DHT22;63241;51.056;3.698;2022-11-13T01:52:03;8.60;99.90
70076;DHT22;63241;51.056;3.698;2022-11-13T01:54:55;8.70;99.90
70076;DHT22;63241;51.056;3.698;2022-11-13T01:57:41;8.80;99.90
70076;DHT22;63241;51.056;3.698;2022-11-13T02:00:28;8.80;99.90
70076;DHT22;63241;51.056;3.698;2022-11-13T02:05:43;8.60;99.90
70076;DHT22;63241;51.056;3.698;2022-11-13T02:08:31;8.60;99.90
70076;DHT22;63241;51.056;3.698;2022-11-13T02:11:19;8.50;99.90
70076;DHT22;63241;51.056;3.698;2022-11-13T02:14:08;8.40;99.90
70076;DHT22;63241;51.056;3.698;2022-11-13T02:16:58;8.30;99.90
70076;DHT22;63241;51.056;3.698;2022-11-13T02:19:49;8.30;99.90
70076;DHT22;63241;51.056;3.698;2022-11-13T02:23:01;8.20;99.90
70076;DHT22;63241;51.056;3.698;2022-11-13T02:25:51;8.10;99.90
70076;DHT22;63241;51.056;3.698;2022-11-13T02:31:10;7.90;99.90
70076;DHT22;63241;51.056;3.698;2022-11-13T02:34:00;7.80;99.90
70076;DHT22;63241;51.056;3.698;2022-11-13T02:36:48;7.70;99.90
70076;DHT22;63241;51.056;3.698;2022-11-13T02:39:36;7.70;99.90
70076;DHT22;63241;51.056;3.698;2022-11-13T02:42:25;7.60;99.90
70076;DHT22;63241;51.056;3.698;2022-11-13T02:45:12;7.50;99.90
70076;DHT22;63241;51.056;3.698;2022-11-13T02:48:20;7.50;99.90
70076;DHT22;63241;51.056;3.698;2022-11-13T02:51:09;7.40;99.90
70076;DHT22;63241;51.056;3.698;2022-11-13T02:53:57;7.40;99.90
70076;DHT22;63241;51.056;3.698;2022-11-13T02:56:44;7.40;99.90
70076;DHT22;63241;51.056;3.698;2022-11-13T02:59:33;7.40;99.90
70076;DHT22;63241;51.056;3.698;2022-11-13T03:02:21;7.30;99.90
70076;DHT22;63241;51.056;3.698;2022-11-13T03:05:09;7.30;99.90
70076;DHT22;63241;51.056;3.698;2022-11-13T03:07:40;7.20;99.90
70076;DHT22;63241;51.056;3.698;2022-11-13T03:10:28;7.20;99.90
70076;DHT22;63241;51.056;3.698;2022-11-13T03:13:15;7.20;99.90
70076;DHT22;63241;51.056;3.698;2022-11-13T03:16:15;7.20;99.90
70076;DHT22;63241;51.056;3.698;2022-11-13T03:19:00;7.20;99.90
70076;DHT22;63241;51.056;3.698;2022-11-13T03:21:48;7.10;99.90
70076;DHT22;63241;51.056;3.698;2022-11-13T03:24:36;7.10;99.90
70076;DHT22;63241;51.056;3.698;2022-11-13T03:27:24;7.00;99.90
70076;DHT22;63241;51.056;3.698;2022-11-13T03:30:12;7.00;99.90
70076;DHT22;63241;51.056;3.698;2022-11-13T03:32:59;6.90;99.90
70076;DHT22;63241;51.056;3.698;2022-11-13T03:35:47;6.90;99.90
70076;DHT22;63241;51.056;3.698;2022-11-13T03:38:35;6.80;99.90
70076;DHT22;63241;51.056;3.698;2022-11-13T03:41:24;6.80;99.90
70076;DHT22;63241;51.056;3.698;2022-11-13T03:44:12;6.80;99.90
70076;DHT22;63241;51.056;3.698;2022-11-13T03:47:02;6.70;99.90
70076;DHT22;63241;51.056;3.698;2022-11-13T03:49:49;6.70;99.90
70076;DHT22;63241;51.056;3.698;2022-11-13T03:52:37;6.70;99.90
70076;DHT22;63241;51.056;3.698;2022-11-13T03:55:25;6.60;99.90
70076;DHT22;63241;51.056;3.698;2022-11-13T03:58:13;6.60;99.90
70076;DHT22;63241;51.056;3.698;2022-11-13T04:01:00;6.50;99.90
70076;DHT22;63241;51.056;3.698;2022-11-13T04:03:48;6.50;99.90
70076;DHT22;63241;51.056;3.698;2022-11-13T04:06:36;6.50;99.90
70076;DHT22;63241;51.056;3.698;2022-11-13T04:09:23;6.40;99.90
70076;DHT22;63241;51.056;3.698;2022-11-13T04:12:13;6.40;99.90
70076;DHT22;63241;51.056;3.698;2022-11-13T04:15:00;6.40;99.90
70076;DHT22;63241;51.056;3.698;2022-11-13T04:17:56;6.40;99.90
70076;DHT22;63241;51.056;3.698;2022-11-13T04:20:45;6.40;99.90
70076;DHT22;63241;51.056;3.698;2022-11-13T04:23:33;6.30;99.90
70076;DHT22;63241;51.056;3.698;2022-11-13T04:26:21;6.40;99.90
70076;DHT22;63241;51.056;3.698;2022-11-13T04:29:08;6.40;99.90
70076;DHT22;63241;51.056;3.698;2022-11-13T04:31:56;6.40;99.90
70076;DHT22;63241;51.056;3.698;2022-11-13T04:34:44;6.40;99.90
70076;DHT22;63241;51.056;3.698;2022-11-13T04:37:32;6.50;99.90
70076;DHT22;63241;51.056;3.698;2022-11-13T04:40:20;6.50;99.90
70076;DHT22;63241;51.056;3.698;2022-11-13T04:43:08;6.50;99.90
70076;DHT22;63241;51.056;3.698;2022-11-13T04:45:56;6.50;99.90
70076;DHT22;63241;51.056;3.698;2022-11-13T04:51:11;6.50;99.90
70076;DHT22;63241;51.056;3.698;2022-11-13T04:53:59;6.60;99.90
70076;DHT22;63241;51.056;3.698;2022-11-13T04:56:47;6.50;99.90
70076;DHT22;63241;51.056;3.698;2022-11-13T04:59:35;6.50;99.90
70076;DHT22;63241;51.056;3.698;2022-11-13T05:02:22;6.50;99.90
70076;DHT22;63241;51.056;3.698;2022-11-13T05:05:11;6.50;99.90
70076;DHT22;63241;51.056;3.698;2022-11-13T05:08:00;6.40;99.90
70076;DHT22;63241;51.056;3.698;2022-11-13T05:10:29;6.40;99.90
70076;DHT22;63241;51.056;3.698;2022-11-13T05:13:16;6.30;99.90
70076;DHT22;63241;51.056;3.698;2022-11-13T05:16:08;6.30;99.90
70076;DHT22;63241;51.056;3.698;2022-11-13T05:19:00;6.20;99.90
70076;DHT22;63241;51.056;3.698;2022-11-13T05:21:47;6.20;99.90
70076;DHT22;63241;51.056;3.698;2022-11-13T05:24:35;6.20;99.90
70076;DHT22;63241;51.056;3.698;2022-11-13T05:27:23;6.20;99.90
70076;DHT22;63241;51.056;3.698;2022-11-13T05:30:11;6.10;99.90
70076;DHT22;63241;51.056;3.698;2022-11-13T05:32:59;6.10;99.90
70076;DHT22;63241;51.056;3.698;2022-11-13T05:36:09;6.20;99.90
70076;DHT22;63241;51.056;3.698;2022-11-13T05:38:55;6.20;99.90
70076;DHT22;63241;51.056;3.698;2022-11-13T05:41:43;6.30;99.90
70076;DHT22;63241;51.056;3.698;2022-11-13T05:44:31;6.30;99.90
70076;DHT22;63241;51.056;3.698;2022-11-13T05:47:18;6.30;99.90
70076;DHT22;63241;51.056;3.698;2022-11-13T05:50:06;6.40;99.90
70076;DHT22;63241;51.056;3.698;2022-11-13T05:52:54;6.40;99.90
70076;DHT22;63241;51.056;3.698;2022-11-13T05:55:41;6.40;99.90
70076;DHT22;63241;51.056;3.698;2022-11-13T06:01:10;6.30;99.90
70076;DHT22;63241;51.056;3.698;2022-11-13T06:03:59;6.20;99.90
70076;DHT22;63241;51.056;3.698;2022-11-13T06:06:48;6.20;99.90
70076;DHT22;63241;51.056;3.698;2022-11-13T06:09:35;6.10;99.90
70076;DHT22;63241;51.056;3.698;2022-11-13T06:12:23;6.10;99.90
70076;DHT22;63241;51.056;3.698;2022-11-13T06:15:11;6.10;99.90
70076;DHT22;63241;51.056;3.698;2022-11-13T06:17:59;6.00;99.90
70076;DHT22;63241;51.056;3.698;2022-11-13T06:20:49;6.00;99.90
70076;DHT22;63241;51.056;3.698;2022-11-13T06:23:18;6.10;99.90
70076;DHT22;63241;51.056;3.698;2022-11-13T06:26:12;6.10;99.90
70076;DHT22;63241;51.056;3.698;2022-11-13T06:29:02;6.10;99.90
70076;DHT22;63241;51.056;3.698;2022-11-13T06:31:50;6.20;99.90
70076;DHT22;63241;51.056;3.698;2022-11-13T06:34:38;6.40;99.90
70076;DHT22;63241;51.056;3.698;2022-11-13T06:37:26;6.50;99.90
70076;DHT22;63241;51.056;3.698;2022-11-13T06:40:14;6.60;99.90
70076;DHT22;63241;51.056;3.698;2022-11-13T06:42:42;6.70;99.90
70076;DHT22;63241;51.056;3.698;2022-11-13T06:45:31;6.70;99.90
70076;DHT22;63241;51.056;3.698;2022-11-13T06:48:18;6.90;99.90
70076;DHT22;63241;51.056;3.698;2022-11-13T06:51:08;6.90;99.90
70076;DHT22;63241;51.056;3.698;2022-11-13T06:53:56;7.00;99.90
70076;DHT22;63241;51.056;3.698;2022-11-13T06:56:44;7.10;99.90
70076;DHT22;63241;51.056;3.698;2022-11-13T07:01:58;7.20;99.90
70076;DHT22;63241;51.056;3.698;2022-11-13T07:04:46;7.30;99.90
70076;DHT22;63241;51.056;3.698;2022-11-13T07:07:34;7.40;99.90
70076;DHT22;63241;51.056;3.698;2022-11-13T07:10:22;7.50;99.90
70076;DHT22;63241;51.056;3.698;2022-11-13T07:16:52;7.60;99.90
70076;DHT22;63241;51.056;3.698;2022-11-13T07:19:40;7.60;99.90
70076;DHT22;63241;51.056;3.698;2022-11-13T07:22:28;7.70;99.90
70076;DHT22;63241;51.056;3.698;2022-11-13T07:25:16;7.80;99.90
70076;DHT22;63241;51.056;3.698;2022-11-13T07:28:05;7.90;99.90
70076;DHT22;63241;51.056;3.698;2022-11-13T07:30:52;8.00;99.90
70076;DHT22;63241;51.056;3.698;2022-11-13T07:33:20;8.10;99.90
70076;DHT22;63241;51.056;3.698;2022-11-13T07:36:08;8.10;99.90
70076;DHT22;63241;51.056;3.698;2022-11-13T07:38:57;8.20;99.90
70076;DHT22;63241;51.056;3.698;2022-11-13T07:41:43;8.30;99.90
70076;DHT22;63241;51.056;3.698;2022-11-13T07:44:33;8.30;99.90
70076;DHT22;63241;51.056;3.698;2022-11-13T07:47:23;8.40;99.90
70076;DHT22;63241;51.056;3.698;2022-11-13T07:50:11;8.50;99.90
70076;DHT22;63241;51.056;3.698;2022-11-13T07:52:39;8.60;99.90
70076;DHT22;63241;51.056;3.698;2022-11-13T07:55:27;8.70;99.90
70076;DHT22;63241;51.056;3.698;2022-11-13T07:58:15;8.80;99.90
70076;DHT22;63241;51.056;3.698;2022-11-13T08:01:04;8.90;99.90
70076;DHT22;63241;51.056;3.698;2022-11-13T08:03:54;8.90;99.90
70076;DHT22;63241;51.056;3.698;2022-11-13T08:06:22;9.00;99.90
70076;DHT22;63241;51.056;3.698;2022-11-13T08:09:10;9.10;99.90
70076;DHT22;63241;51.056;3.698;2022-11-13T08:11:57;9.10;99.90
70076;DHT22;63241;51.056;3.698;2022-11-13T08:14:52;9.20;99.90
70076;DHT22;63241;51.056;3.698;2022-11-13T08:17:40;9.20;99.90
70076;DHT22;63241;51.056;3.698;2022-11-13T08:20:30;9.40;99.90
70076;DHT22;63241;51.056;3.698;2022-11-13T08:23:18;9.50;99.90
70076;DHT22;63241;51.056;3.698;2022-11-13T08:26:09;9.60;99.90
70076;DHT22;63241;51.056;3.698;2022-11-13T08:28:56;9.80;99.90
70076;DHT22;63241;51.056;3.698;2022-11-13T08:31:43;9.90;99.90
70076;DHT22;63241;51.056;3.698;2022-11-13T08:34:32;10.00;99.90
70076;DHT22;63241;51.056;3.698;2022-11-13T08:37:19;10.10;99.90
70076;DHT22;63241;51.056;3.698;2022-11-13T08:39:46;10.30;99.90
70076;DHT22;63241;51.056;3.698;2022-11-13T08:42:34;10.40;99.90
70076;DHT22;63241;51.056;3.698;2022-11-13T08:45:22;10.60;99.90
70076;DHT22;63241;51.056;3.698;2022-11-13T08:48:10;10.60;99.90
70076;DHT22;63241;51.056;3.698;2022-11-13T08:50:57;10.70;99.90
70076;DHT22;63241;51.056;3.698;2022-11-13T08:53:25;10.70;99.90
70076;DHT22;63241;51.056;3.698;2022-11-13T08:56:13;10.90;99.90
70076;DHT22;63241;51.056;3.698;2022-11-13T08:59:00;11.20;99.90
70076;DHT22;63241;51.056;3.698;2022-11-13T09:01:48;11.20;99.90
70076;DHT22;63241;51.056;3.698;2022-11-13T09:04:37;11.20;99.90
70076;DHT22;63241;51.056;3.698;2022-11-13T09:07:26;11.30;99.90
70076;DHT22;63241;51.056;3.698;2022-11-13T09:10:15;11.20;99.90
70076;DHT22;63241;51.056;3.698;2022-11-13T09:13:04;11.20;99.90
70076;DHT22;63241;51.056;3.698;2022-11-13T09:15:52;11.40;99.90
70076;DHT22;63241;51.056;3.698;2022-11-13T09:18:40;11.60;99.90
70076;DHT22;63241;51.056;3.698;2022-11-13T09:21:28;11.70;99.90
70076;DHT22;63241;51.056;3.698;2022-11-13T09:23:58;11.60;99.90
70076;DHT22;63241;51.056;3.698;2022-11-13T09:26:46;11.60;99.90
70076;DHT22;63241;51.056;3.698;2022-11-13T09:29:34;11.40;99.90
70076;DHT22;63241;51.056;3.698;2022-11-13T09:32:20;11.50;99.90
70076;DHT22;63241;51.056;3.698;2022-11-13T09:35:08;12.30;99.90
70076;DHT22;63241;51.056;3.698;2022-11-13T09:37:57;13.60;99.90
70076;DHT22;63241;51.056;3.698;2022-11-13T09:40:34;15.30;99.90
70076;DHT22;63241;51.056;3.698;2022-11-13T09:43:34;17.40;99.90
70076;DHT22;63241;51.056;3.698;2022-11-13T09:46:46;19.60;90.40
70076;DHT22;63241;51.056;3.698;2022-11-13T09:49:37;21.40;76.20
70076;DHT22;63241;51.056;3.698;2022-11-13T09:52:31;21.80;60.20
70076;DHT22;63241;51.056;3.698;2022-11-13T09:55:19;22.60;59.70
70076;DHT22;63241;51.056;3.698;2022-11-13T09:58:19;23.10;58.80
70076;DHT22;63241;51.056;3.698;2022-11-13T10:01:28;23.50;53.50
70076;DHT22;63241;51.056;3.698;2022-11-13T10:03:44;24.40;54.20
70076;DHT22;63241;51.056;3.698;2022-11-13T10:09:34;24.40;49.20
70076;DHT22;63241;51.056;3.698;2022-11-13T10:12:21;25.40;47.60
70076;DHT22;63241;51.056;3.698;2022-11-13T10:15:10;25.40;45.20
70076;DHT22;63241;51.056;3.698;2022-11-13T10:18:06;25.80;45.30
70076;DHT22;63241;51.056;3.698;2022-11-13T10:20:51;26.00;43.50
70076;DHT22;63241;51.056;3.698;2022-11-13T10:23:40;25.80;42.50
70076;DHT22;63241;51.056;3.698;2022-11-13T10:26:31;25.60;43.50
70076;DHT22;63241;51.056;3.698;2022-11-13T10:29:18;25.60;42.60
70076;DHT22;63241;51.056;3.698;2022-11-13T10:32:21;24.70;42.10
70076;DHT22;63241;51.056;3.698;2022-11-13T10:38:47;23.00;45.10
70076;DHT22;63241;51.056;3.698;2022-11-13T10:41:17;22.60;46.50
70076;DHT22;63241;51.056;3.698;2022-11-13T10:44:34;23.00;46.00
70076;DHT22;63241;51.056;3.698;2022-11-13T10:47:24;22.20;45.90
70076;DHT22;63241;51.056;3.698;2022-11-13T10:50:23;21.60;46.10
70076;DHT22;63241;51.056;3.698;2022-11-13T10:53:16;21.80;47.90
70076;DHT22;63241;51.056;3.698;2022-11-13T10:56:22;21.20;48.30
70076;DHT22;63241;51.056;3.698;2022-11-13T10:59:11;21.40;49.00
70076;DHT22;63241;51.056;3.698;2022-11-13T11:02:23;22.50;47.90
70076;DHT22;63241;51.056;3.698;2022-11-13T11:05:14;22.30;46.90
70076;DHT22;63241;51.056;3.698;2022-11-13T11:07:56;21.50;47.90
70076;DHT22;63241;51.056;3.698;2022-11-13T11:11:32;21.70;48.30
70076;DHT22;63241;51.056;3.698;2022-11-13T11:13:36;21.80;48.80
70076;DHT22;63241;51.056;3.698;2022-11-13T11:16:32;21.20;50.00
70076;DHT22;63241;51.056;3.698;2022-11-13T11:19:23;21.40;50.50
70076;DHT22;63241;51.056;3.698;2022-11-13T11:22:15;22.10;49.40
70076;DHT22;63241;51.056;3.698;2022-11-13T11:25:08;22.70;49.30
70076;DHT22;63241;51.056;3.698;2022-11-13T11:28:00;22.70;48.40
70076;DHT22;63241;51.056;3.698;2022-11-13T11:31:02;22.80;48.20
70076;DHT22;63241;51.056;3.698;2022-11-13T11:33:51;23.20;47.70
70076;DHT22;63241;51.056;3.698;2022-11-13T11:43:50;22.90;47.10
70076;DHT22;63241;51.056;3.698;2022-11-13T11:46:39;22.70;46.90
70076;DHT22;63241;51.056;3.698;2022-11-13T11:49:26;22.60;48.80
70076;DHT22;63241;51.056;3.698;2022-11-13T12:02:00;22.20;48.40
70076;DHT22;63241;51.056;3.698;2022-11-13T12:05:11;22.20;49.20
70076;DHT22;63241;51.056;3.698;2022-11-13T12:08:21;22.00;48.80
70076;DHT22;63241;51.056;3.698;2022-11-13T12:30:06;20.90;50.30
70076;DHT22;63241;51.056;3.698;2022-11-13T12:35:57;20.30;51.10
70076;DHT22;63241;51.056;3.698;2022-11-13T12:51:08;19.50;55.20
70076;DHT22;63241;51.056;3.698;2022-11-13T12:53:56;20.20;54.70
70076;DHT22;63241;51.056;3.698;2022-11-13T12:56:44;21.40;51.70
70076;DHT22;63241;51.056;3.698;2022-11-13T13:06:03;21.00;51.10
70076;DHT22;63241;51.056;3.698;2022-11-13T13:18:09;21.50;50.90
70076;DHT22;63241;51.056;3.698;2022-11-13T13:21:01;21.80;49.30
70076;DHT22;63241;51.056;3.698;2022-11-13T13:23:51;22.10;49.20
70076;DHT22;63241;51.056;3.698;2022-11-13T13:26:46;22.60;48.20
70076;DHT22;63241;51.056;3.698;2022-11-13T13:29:34;22.60;47.30
70076;DHT22;63241;51.056;3.698;2022-11-13T13:35:25;22.70;47.50
70076;DHT22;63241;51.056;3.698;2022-11-13T13:43:56;21.60;44.40
70076;DHT22;63241;51.056;3.698;2022-11-13T13:46:43;21.20;45.40
70076;DHT22;63241;51.056;3.698;2022-11-13T13:49:33;21.00;46.00
70076;DHT22;63241;51.056;3.698;2022-11-13T13:52:25;20.80;45.90
70076;DHT22;63241;51.056;3.698;2022-11-13T13:55:18;20.50;47.10
70076;DHT22;63241;51.056;3.698;2022-11-13T13:58:08;20.20;47.80
70076;DHT22;63241;51.056;3.698;2022-11-13T14:00:58;20.10;48.00
70076;DHT22;63241;51.056;3.698;2022-11-13T14:03:48;19.90;48.40
70076;DHT22;63241;51.056;3.698;2022-11-13T14:06:52;20.00;48.90
70076;DHT22;63241;51.056;3.698;2022-11-13T14:09:40;20.00;48.90
70076;DHT22;63241;51.056;3.698;2022-11-13T14:15:35;19.70;50.10
70076;DHT22;63241;51.056;3.698;2022-11-13T14:18:23;18.90;51.70
70076;DHT22;63241;51.056;3.698;2022-11-13T14:21:14;18.40;53.30
70076;DHT22;63241;51.056;3.698;2022-11-13T14:24:02;18.10;53.30
70076;DHT22;63241;51.056;3.698;2022-11-13T14:26:52;17.80;54.50
70076;DHT22;63241;51.056;3.698;2022-11-13T14:29:49;17.20;55.60
70076;DHT22;63241;51.056;3.698;2022-11-13T14:32:40;16.90;56.50
70076;DHT22;63241;51.056;3.698;2022-11-13T14:35:28;16.60;57.00
70076;DHT22;63241;51.056;3.698;2022-11-13T14:38:22;16.40;57.70
70076;DHT22;63241;51.056;3.698;2022-11-13T14:43:50;16.10;58.50
70076;DHT22;63241;51.056;3.698;2022-11-13T14:46:42;16.10;59.00
70076;DHT22;63241;51.056;3.698;2022-11-13T14:49:35;16.00;59.40
70076;DHT22;63241;51.056;3.698;2022-11-13T14:52:28;15.90;59.80
70076;DHT22;63241;51.056;3.698;2022-11-13T14:55:22;15.80;60.00
70076;DHT22;63241;51.056;3.698;2022-11-13T14:58:11;15.60;61.30
70076;DHT22;63241;51.056;3.698;2022-11-13T15:01:18;15.50;61.40
70076;DHT22;63241;51.056;3.698;2022-11-13T15:04:06;15.40;61.30
70076;DHT22;63241;51.056;3.698;2022-11-13T15:06:59;15.30;62.10
70076;DHT22;63241;51.056;3.698;2022-11-13T15:09:47;15.20;62.40
70076;DHT22;63241;51.056;3.698;2022-11-13T15:12:34;15.10;62.70
70076;DHT22;63241;51.056;3.698;2022-11-13T15:15:27;15.00;63.40
70076;DHT22;63241;51.056;3.698;2022-11-13T15:18:25;14.90;64.20
70076;DHT22;63241;51.056;3.698;2022-11-13T15:20:42;14.80;64.40
70076;DHT22;63241;51.056;3.698;2022-11-13T15:23:50;14.80;65.80
70076;DHT22;63241;51.056;3.698;2022-11-13T15:26:38;14.60;65.70
70076;DHT22;63241;51.056;3.698;2022-11-13T15:29:26;14.50;66.60
70076;DHT22;63241;51.056;3.698;2022-11-13T15:32:14;14.40;67.30
70076;DHT22;63241;51.056;3.698;2022-11-13T15:35:01;14.30;68.40
70076;DHT22;63241;51.056;3.698;2022-11-13T15:37:49;14.20;69.70
70076;DHT22;63241;51.056;3.698;2022-11-13T15:40:38;14.00;70.90
70076;DHT22;63241;51.056;3.698;2022-11-13T15:43:26;13.90;71.90
70076;DHT22;63241;51.056;3.698;2022-11-13T15:46:15;13.80;72.70
70076;DHT22;63241;51.056;3.698;2022-11-13T15:49:03;13.70;73.70
70076;DHT22;63241;51.056;3.698;2022-11-13T15:51:52;13.60;74.20
70076;DHT22;63241;51.056;3.698;2022-11-13T15:54:41;13.50;75.00
70076;DHT22;63241;51.056;3.698;2022-11-13T15:57:29;13.40;75.80
70076;DHT22;63241;51.056;3.698;2022-11-13T16:00:21;13.20;76.00
70076;DHT22;63241;51.056;3.698;2022-11-13T16:03:09;13.10;77.00
70076;DHT22;63241;51.056;3.698;2022-11-13T16:05:38;13.00;77.70
70076;DHT22;63241;51.056;3.698;2022-11-13T16:08:27;12.90;79.50
70076;DHT22;63241;51.056;3.698;2022-11-13T16:11:19;12.80;80.40
70076;DHT22;63241;51.056;3.698;2022-11-13T16:14:07;12.60;79.80
70076;DHT22;63241;51.056;3.698;2022-11-13T16:16:55;12.60;80.40
70076;DHT22;63241;51.056;3.698;2022-11-13T16:19:43;12.40;80.70
70076;DHT22;63241;51.056;3.698;2022-11-13T16:22:31;12.30;81.30
70076;DHT22;63241;51.056;3.698;2022-11-13T16:25:21;12.20;84.40
70076;DHT22;63241;51.056;3.698;2022-11-13T16:27:53;12.10;87.20
70076;DHT22;63241;51.056;3.698;2022-11-13T16:30:40;12.00;89.50
70076;DHT22;63241;51.056;3.698;2022-11-13T16:33:28;12.00;90.80
70076;DHT22;63241;51.056;3.698;2022-11-13T16:36:20;12.00;91.80
70076;DHT22;63241;51.056;3.698;2022-11-13T16:39:10;11.90;91.50
70076;DHT22;63241;51.056;3.698;2022-11-13T16:42:16;11.80;91.70
70076;DHT22;63241;51.056;3.698;2022-11-13T16:45:05;11.70;93.40
70076;DHT22;63241;51.056;3.698;2022-11-13T16:47:53;11.60;93.90
70076;DHT22;63241;51.056;3.698;2022-11-13T16:50:41;11.50;93.60
70076;DHT22;63241;51.056;3.698;2022-11-13T16:53:29;11.40;93.50
70076;DHT22;63241;51.056;3.698;2022-11-13T16:56:26;11.30;93.80
70076;DHT22;63241;51.056;3.698;2022-11-13T16:59:12;11.30;95.80
70076;DHT22;63241;51.056;3.698;2022-11-13T17:02:02;11.10;95.60
70076;DHT22;63241;51.056;3.698;2022-11-13T17:04:31;11.10;95.80
70076;DHT22;63241;51.056;3.698;2022-11-13T17:07:19;11.00;95.60
70076;DHT22;63241;51.056;3.698;2022-11-13T17:10:15;10.80;95.60
70076;DHT22;63241;51.056;3.698;2022-11-13T17:13:04;10.80;96.20
70076;DHT22;63241;51.056;3.698;2022-11-13T17:15:52;10.70;96.10
70076;DHT22;63241;51.056;3.698;2022-11-13T17:18:42;10.60;97.80
70076;DHT22;63241;51.056;3.698;2022-11-13T17:21:30;10.50;98.40
70076;DHT22;63241;51.056;3.698;2022-11-13T17:24:18;10.50;98.60
70076;DHT22;63241;51.056;3.698;2022-11-13T17:27:06;10.30;99.30
70076;DHT22;63241;51.056;3.698;2022-11-13T17:32:20;10.20;99.50
70076;DHT22;63241;51.056;3.698;2022-11-13T17:35:08;10.20;99.90
70076;DHT22;63241;51.056;3.698;2022-11-13T17:37:55;10.10;99.90
70076;DHT22;63241;51.056;3.698;2022-11-13T17:44:25;10.00;99.90
70076;DHT22;63241;51.056;3.698;2022-11-13T17:47:12;9.90;99.90
70076;DHT22;63241;51.056;3.698;2022-11-13T17:49:59;9.80;99.90
70076;DHT22;63241;51.056;3.698;2022-11-13T17:52:48;9.70;99.90
70076;DHT22;63241;51.056;3.698;2022-11-13T17:55:35;9.70;99.90
70076;DHT22;63241;51.056;3.698;2022-11-13T17:58:02;9.60;99.90
70076;DHT22;63241;51.056;3.698;2022-11-13T18:00:50;9.50;99.90
70076;DHT22;63241;51.056;3.698;2022-11-13T18:03:39;9.50;99.90
70076;DHT22;63241;51.056;3.698;2022-11-13T18:06:28;9.40;99.90
70076;DHT22;63241;51.056;3.698;2022-11-13T18:09:16;9.30;99.90
70076;DHT22;63241;51.056;3.698;2022-11-13T18:12:04;9.30;99.90
70076;DHT22;63241;51.056;3.698;2022-11-13T18:14:53;9.20;99.90
70076;DHT22;63241;51.056;3.698;2022-11-13T18:17:43;9.20;99.90
70076;DHT22;63241;51.056;3.698;2022-11-13T18:20:29;9.10;99.90
70076;DHT22;63241;51.056;3.698;2022-11-13T18:23:17;9.10;99.90
70076;DHT22;63241;51.056;3.698;2022-11-13T18:26:15;9.00;99.90
70076;DHT22;63241;51.056;3.698;2022-11-13T18:29:01;9.00;99.90
70076;DHT22;63241;51.056;3.698;2022-11-13T18:31:49;8.90;99.90
70076;DHT22;63241;51.056;3.698;2022-11-13T18:34:17;8.90;99.90
70076;DHT22;63241;51.056;3.698;2022-11-13T18:37:05;8.80;99.90
70076;DHT22;63241;51.056;3.698;2022-11-13T18:39:52;8.70;99.90
70076;DHT22;63241;51.056;3.698;2022-11-13T18:42:41;8.70;99.90
70076;DHT22;63241;51.056;3.698;2022-11-13T18:45:30;8.60;99.90
70076;DHT22;63241;51.056;3.698;2022-11-13T18:48:18;8.60;99.90
70076;DHT22;63241;51.056;3.698;2022-11-13T18:51:12;8.60;99.90
70076;DHT22;63241;51.056;3.698;2022-11-13T18:54:01;8.60;99.90
70076;DHT22;63241;51.056;3.698;2022-11-13T18:56:51;8.60;99.90
70076;DHT22;63241;51.056;3.698;2022-11-13T18:59:39;8.60;99.90
70076;DHT22;63241;51.056;3.698;2022-11-13T19:02:29;8.60;99.90
70076;DHT22;63241;51.056;3.698;2022-11-13T19:05:17;8.70;99.90
70076;DHT22;63241;51.056;3.698;2022-11-13T19:08:05;8.70;99.90
70076;DHT22;63241;51.056;3.698;2022-11-13T19:10:54;8.70;99.90
70076;DHT22;63241;51.056;3.698;2022-11-13T19:13:43;8.70;99.90
70076;DHT22;63241;51.056;3.698;2022-11-13T19:16:37;8.70;99.90
70076;DHT22;63241;51.056;3.698;2022-11-13T19:19:23;8.70;99.90
70076;DHT22;63241;51.056;3.698;2022-11-13T19:21:51;8.70;99.90
70076;DHT22;63241;51.056;3.698;2022-11-13T19:24:40;8.70;99.90
70076;DHT22;63241;51.056;3.698;2022-11-13T19:27:28;8.60;99.90
70076;DHT22;63241;51.056;3.698;2022-11-13T19:30:17;8.60;99.90
70076;DHT22;63241;51.056;3.698;2022-11-13T19:33:05;8.50;99.90
70076;DHT22;63241;51.056;3.698;2022-11-13T19:39:07;8.40;99.90
70076;DHT22;63241;51.056;3.698;2022-11-13T19:41:55;8.40;99.90
70076;DHT22;63241;51.056;3.698;2022-11-13T19:44:43;8.40;99.90
70076;DHT22;63241;51.056;3.698;2022-11-13T19:47:31;8.30;99.90
70076;DHT22;63241;51.056;3.698;2022-11-13T19:50:20;8.30;99.90
70076;DHT22;63241;51.056;3.698;2022-11-13T19:53:08;8.30;99.90
70076;DHT22;63241;51.056;3.698;2022-11-13T19:55:55;8.20;99.90